Time;durP1;ratioP1;P1;durP2;ratioP2;P2;SDS_P1;SDS_P2;PMS_P1;PMS_P2;Temp;Humidity;BMP_temperature;BMP_pressure;BME280_temperature;BME280_humidity;BME280_pressure;Samples;Min_cycle;Max_cycle;Signal;HPM_P1;HPM_P2
2022/06/06 00:01:00;;;;;;;12.80;4.00;;;;;;;23.13;51.51;95015.22;4936010;29;20044;-83
2022/06/06 00:03:27;;;;;;;8.00;4.10;;;;;;;23.56;52.25;95112.38;4935563;29;20035;-83
2022/06/06 00:05:52;;;;;;;7.07;3.80;;;;;;;23.01;52.41;95022.34;4935714;29;20039;-83
2022/06/06 00:08:17;;;;;;;6.50;3.85;;;;;;;23.03;52.38;95008.47;4918414;29;20418;-83
2022/06/06 00:10:45;;;;;;;8.35;3.90;;;;;;;23.76;52.37;95127.44;4934100;29;20037;-83
2022/06/06 00:13:13;;;;;;;10.23;3.70;;;;;;;23.75;51.98;95120.47;4918287;29;20534;-83
2022/06/06 00:15:38;;;;;;;10.35;4.55;;;;;;;23.33;52.13;95055.44;4935654;29;20088;-83
2022/06/06 00:18:04;;;;;;;7.75;3.60;;;;;;;23.04;52.25;95021.63;4917984;29;20539;-84
2022/06/06 00:20:31;;;;;;;8.20;4.10;;;;;;;23.88;51.90;95123.03;4918278;29;20032;-83
2022/06/06 00:22:57;;;;;;;7.60;4.13;;;;;;;23.86;51.25;95104.41;4935458;29;20070;-83
2022/06/06 00:25:24;;;;;;;8.05;3.88;;;;;;;23.82;50.44;95115.19;4935441;29;20115;-83
2022/06/06 00:27:49;;;;;;;8.20;3.40;;;;;;;23.05;49.94;94979.13;4935336;29;20114;-83
2022/06/06 00:30:15;;;;;;;9.52;3.80;;;;;;;22.92;50.67;95015.59;4935110;29;20119;-83
2022/06/06 00:35:25;;;;;;;8.23;3.70;;;;;;;22.96;51.75;95011.03;4936399;29;20047;-83
2022/06/06 00:37:51;;;;;;;4.97;3.65;;;;;;;23.56;51.43;95092.63;4917456;29;20032;-83
2022/06/06 00:40:19;;;;;;;7.15;3.90;;;;;;;23.69;51.44;95078.56;4934994;29;20043;-83
2022/06/06 00:42:45;;;;;;;7.95;3.30;;;;;;;23.67;51.26;95061.91;4917596;29;20027;-83
2022/06/06 00:45:38;;;;;;;8.98;3.45;;;;;;;23.75;50.98;95066.31;4918579;29;20584;-83
2022/06/06 00:48:19;;;;;;;12.68;3.88;;;;;;;23.70;51.51;95057.72;4935147;28;20034;-83
2022/06/06 00:50:56;;;;;;;;;;;;;;;23.67;51.53;95058.41;4918126;29;20050;-83
2022/06/06 00:53:35;;;;;;;8.57;3.70;;;;;;;23.77;50.76;95053.19;4934695;29;19918;-83
2022/06/06 00:56:12;;;;;;;7.97;3.50;;;;;;;22.73;50.43;94886.59;4934827;29;20483;-83
2022/06/06 00:58:40;;;;;;;7.85;3.45;;;;;;;22.91;51.33;94939.09;4917133;29;20182;-83
2022/06/06 01:01:06;;;;;;;7.90;3.25;;;;;;;22.89;51.76;94943.28;4934674;29;20577;-83
2022/06/06 01:03:31;;;;;;;7.40;3.20;;;;;;;22.90;51.65;94939.44;4934799;29;20063;-83
2022/06/06 01:05:58;;;;;;;8.75;3.33;;;;;;;23.64;51.40;95030.16;4935020;29;20095;-83
2022/06/06 01:08:24;;;;;;;9.73;3.97;;;;;;;23.64;51.08;95024.75;4917624;29;20039;-83
2022/06/06 01:10:50;;;;;;;6.97;3.40;;;;;;;23.45;51.22;95011.97;4917703;29;20095;-83
2022/06/06 01:13:19;;;;;;;4.68;3.55;;;;;;;22.92;51.24;94926.34;4917848;29;20039;-83
2022/06/06 01:16:04;;;;;;;4.88;3.08;;;;;;;22.90;50.51;94896.16;4934972;29;20036;-83
2022/06/06 01:18:42;;;;;;;12.10;3.92;;;;;;;23.46;51.24;94980.28;4934674;29;20047;-83
2022/06/06 01:21:48;;;;;;;9.35;4.60;;;;;;;23.50;52.96;95004.75;4935237;29;20559;-83
2022/06/06 01:24:15;;;;;;;11.27;4.43;;;;;;;23.56;53.10;94974.31;4918028;29;20032;-83
2022/06/06 01:27:02;;;;;;;8.15;4.47;;;;;;;23.55;52.98;94980.88;4917201;29;20039;-83
2022/06/06 01:29:36;;;;;;;6.03;3.90;;;;;;;23.59;51.84;94989.03;4934588;29;20111;-83
2022/06/06 01:32:12;;;;;;;7.18;3.88;;;;;;;22.78;51.55;94872.78;4917294;29;20052;-83
2022/06/06 01:34:41;;;;;;;13.32;4.32;;;;;;;23.01;51.08;94922.28;4934695;29;20481;-84
2022/06/06 01:37:49;;;;;;;10.23;3.63;;;;;;;23.66;50.76;95005.41;4917724;29;20047;-83
2022/06/06 01:40:16;;;;;;;14.57;4.53;;;;;;;23.58;51.27;95050.50;4931674;29;20114;-83
2022/06/06 01:42:52;;;;;;;10.45;4.63;;;;;;;22.60;55.87;95169.72;4917999;29;20091;-83
2022/06/06 01:45:27;;;;;;;12.88;6.22;;;;;;;22.00;57.92;95151.22;4934171;29;20487;-83
2022/06/06 01:48:00;;;;;;;24.98;6.57;;;;;;;21.07;60.08;95078.47;4934665;29;20039;-83
2022/06/06 01:50:26;;;;;;;50.33;10.60;;;;;;;21.20;66.03;95170.97;4916948;29;20039;-83
2022/06/06 01:52:59;;;;;;;35.35;10.60;;;;;;;20.33;73.58;95165.09;4933635;29;20099;-85
2022/06/06 01:55:27;;;;;;;46.80;11.00;;;;;;;18.81;76.69;95058.31;4934953;29;20043;-85
2022/06/06 01:57:56;;;;;;;18.70;9.27;;;;;;;18.18;79.10;95022.53;4915577;29;20036;-84
2022/06/06 02:00:22;;;;;;;28.50;10.85;;;;;;;18.41;79.59;95033.78;4917417;29;20070;-86
2022/06/06 02:02:48;;;;;;;30.00;11.15;;;;;;;18.49;84.60;95030.25;4917111;29;20032;-86
2022/06/06 02:05:15;;;;;;;27.48;11.73;;;;;;;19.14;83.05;95129.06;4934564;29;20558;-86
2022/06/06 02:07:42;;;;;;;35.85;13.32;;;;;;;19.20;84.67;95140.41;4916547;29;20043;-86
2022/06/06 02:10:09;;;;;;;30.20;12.32;;;;;;;18.31;86.11;94972.44;4917068;29;20035;-86
2022/06/06 02:12:36;;;;;;;45.17;12.35;;;;;;;18.69;85.65;95016.06;4917205;29;20036;-86
2022/06/06 02:15:03;;;;;;;38.85;12.27;;;;;;;19.12;84.45;95077.53;4916823;29;20043;-86
2022/06/06 02:17:29;;;;;;;27.00;11.25;;;;;;;17.98;83.15;94942.81;4920134;29;20043;-86
2022/06/06 02:19:54;;;;;;;27.73;10.55;;;;;;;18.17;83.66;94951.19;4920996;29;20039;-86
2022/06/06 02:22:19;;;;;;;26.67;10.00;;;;;;;17.69;84.14;94904.16;4921430;29;20402;-85
2022/06/06 02:24:45;;;;;;;29.10;10.80;;;;;;;18.39;84.31;95012.63;4942486;29;20039;-86
2022/06/06 02:27:10;;;;;;;29.45;11.27;;;;;;;17.56;84.20;94934.63;4923890;29;20039;-85
2022/06/06 02:29:36;;;;;;;31.50;11.75;;;;;;;18.39;85.15;95111.16;4920420;29;20035;-85
2022/06/06 02:32:01;;;;;;;28.65;10.07;;;;;;;18.89;84.38;95229.44;4937285;29;20046;-86
2022/06/06 02:34:27;;;;;;;27.20;11.13;;;;;;;18.51;83.98;95192.63;4935630;29;20046;-85
2022/06/06 02:36:52;;;;;;;29.10;10.98;;;;;;;17.54;84.72;95043.31;4936899;29;20044;-85
2022/06/06 02:39:18;;;;;;;27.20;11.88;;;;;;;17.12;86.53;94930.56;4919871;29;20035;-85
2022/06/06 02:41:44;;;;;;;28.58;11.75;;;;;;;18.20;86.25;95079.38;4919397;29;20062;-85
2022/06/06 02:44:09;;;;;;;25.98;11.20;;;;;;;18.39;85.55;95079.72;4935779;29;20047;-86
2022/06/06 02:46:35;;;;;;;29.23;10.65;;;;;;;17.99;84.28;94990.78;4935831;29;20487;-85
2022/06/06 02:49:01;;;;;;;20.60;11.32;;;;;;;19.01;86.04;95100.53;4935621;29;20086;-85
2022/06/06 02:51:26;;;;;;;18.48;8.68;;;;;;;18.69;81.95;95069.03;4937506;29;20150;-85
2022/06/06 02:53:51;;;;;;;20.13;8.90;;;;;;;16.91;82.29;94753.69;4919521;29;20063;-85
2022/06/06 02:56:17;;;;;;;24.08;10.65;;;;;;;18.78;83.41;95016.00;4919720;29;20067;-85
2022/06/06 02:58:42;;;;;;;24.20;11.38;;;;;;;18.59;85.43;94953.91;4919968;29;20044;-85
2022/06/06 03:01:10;;;;;;;25.15;10.60;;;;;;;19.56;85.50;95073.31;4919899;29;20039;-85
2022/06/06 03:03:37;;;;;;;22.20;11.13;;;;;;;19.74;85.43;95075.84;4920246;29;20475;-85
2022/06/06 03:06:07;;;;;;;21.77;10.40;;;;;;;19.79;84.88;95091.75;4920045;29;20036;-85
2022/06/06 03:08:51;;;;;;;26.77;10.07;;;;;;;19.98;85.20;95121.66;4936867;29;20028;-85
2022/06/06 03:11:41;;;;;;;23.30;10.48;;;;;;;20.12;84.55;95130.19;4937953;29;20051;-85
2022/06/06 03:14:24;;;;;;;23.70;9.77;;;;;;;19.76;83.80;95084.38;4937057;29;20040;-85
2022/06/06 03:23:46;;;;;;;24.02;9.43;;;;;;;19.71;80.49;95096.13;4892827;29;20542;-86
2022/06/06 03:26:30;;;;;;;19.38;9.52;;;;;;;20.20;81.65;95163.50;4948709;29;20043;-86
2022/06/06 03:29:09;;;;;;;22.02;9.50;;;;;;;20.15;81.82;95164.50;4934104;29;20094;-85
2022/06/06 03:31:59;;;;;;;18.23;8.52;;;;;;;20.22;80.59;95183.59;4923551;29;20427;-84
2022/06/06 03:34:38;;;;;;;21.48;8.32;;;;;;;20.25;80.14;95198.28;4920118;29;20039;-85
2022/06/06 03:37:21;;;;;;;17.95;8.80;;;;;;;20.30;81.49;95174.63;4918986;29;20303;-85
2022/06/06 03:40:04;;;;;;;18.13;8.27;;;;;;;20.19;82.18;95178.88;4918744;29;20035;-85
2022/06/06 03:42:44;;;;;;;14.55;8.82;;;;;;;20.01;81.99;95115.56;4936006;29;20074;-84
2022/06/06 03:45:34;;;;;;;23.25;8.27;;;;;;;20.31;79.37;95151.97;4935866;29;20027;-85
2022/06/06 03:48:33;;;;;;;17.42;8.00;;;;;;;20.44;79.48;95160.09;4903899;29;20130;-85
2022/06/06 03:51:02;;;;;;;19.35;8.15;;;;;;;20.53;79.11;95169.63;4895397;29;20522;-85
2022/06/06 03:53:48;;;;;;;17.48;7.10;;;;;;;20.66;80.02;95165.81;4918515;29;20044;-84
2022/06/06 03:56:29;;;;;;;21.85;7.57;;;;;;;20.62;80.02;95180.28;4918953;29;20059;-85
2022/06/06 03:58:56;;;;;;;22.30;8.70;;;;;;;20.07;79.94;95083.84;4917168;29;20074;-85
2022/06/06 04:01:24;;;;;;;17.92;9.00;;;;;;;19.58;79.99;94986.94;4918307;29;20284;-85
2022/06/06 04:03:50;;;;;;;21.30;9.02;;;;;;;20.23;80.29;95063.19;4918671;29;20083;-85
2022/06/06 04:06:19;;;;;;;16.02;7.82;;;;;;;20.44;78.69;95095.44;4934967;29;20023;-85
2022/06/06 04:08:45;;;;;;;18.23;7.90;;;;;;;20.42;78.51;95076.94;4918101;29;20030;-85
2022/06/06 04:11:25;;;;;;;17.13;8.13;;;;;;;21.11;78.45;95159.47;4917788;29;20507;-85
2022/06/06 04:14:00;;;;;;;16.73;8.93;;;;;;;21.04;78.17;95156.59;4917519;29;20514;-84
2022/06/06 04:16:38;;;;;;;18.33;8.13;;;;;;;21.00;78.21;95150.28;4917440;29;20031;-84
2022/06/06 04:19:36;;;;;;;17.38;8.90;;;;;;;21.04;77.58;95153.88;4933163;29;20035;-85
2022/06/06 04:22:17;;;;;;;23.30;9.13;;;;;;;20.85;78.34;95113.25;4890034;29;20043;-85
2022/06/06 04:24:42;;;;;;;20.27;9.32;;;;;;;21.24;78.71;95157.56;4933642;29;20102;-86
2022/06/06 04:27:27;;;;;;;20.73;8.77;;;;;;;21.23;78.55;95156.00;4924085;29;20131;-85
2022/06/06 04:29:56;;;;;;;19.45;9.45;;;;;;;21.20;78.23;95152.09;4917615;29;20152;-85
2022/06/06 04:32:43;;;;;;;19.98;10.27;;;;;;;21.30;78.58;95154.28;4922201;29;20051;-85
2022/06/06 04:35:28;;;;;;;19.20;9.23;;;;;;;21.39;77.69;95154.16;4926945;29;20393;-85
2022/06/06 04:38:22;;;;;;;20.02;8.63;;;;;;;21.16;77.50;95146.56;4921294;29;20047;-85
2022/06/06 04:41:12;;;;;;;16.80;9.32;;;;;;;20.95;77.33;95110.09;4896197;29;20059;-84
2022/06/06 04:43:46;;;;;;;19.23;9.40;;;;;;;21.42;76.31;95156.19;4913788;29;20147;-84
2022/06/06 04:46:11;;;;;;;20.25;9.50;;;;;;;21.43;75.82;95163.16;4935708;29;20032;-85
2022/06/06 04:48:37;;;;;;;17.85;9.50;;;;;;;20.59;76.55;95025.50;4939111;29;20036;-86
2022/06/06 04:51:04;;;;;;;18.77;9.55;;;;;;;21.49;76.70;95167.16;4935534;29;20112;-84
2022/06/06 04:53:32;;;;;;;14.63;8.02;;;;;;;20.90;76.57;95062.59;4914637;29;20491;-84
2022/06/06 04:55:59;;;;;;;12.52;8.48;;;;;;;21.26;75.43;95112.94;4937092;29;20059;-84
2022/06/06 04:58:29;;;;;;;16.63;8.77;;;;;;;21.60;75.69;95175.53;4924658;29;20047;-85
2022/06/06 05:00:55;;;;;;;14.68;8.18;;;;;;;20.51;75.63;95009.47;4909113;29;20062;-85
2022/06/06 05:03:21;;;;;;;19.70;8.90;;;;;;;21.01;75.33;95055.59;4937931;28;20059;-85
2022/06/06 05:05:56;;;;;;;17.75;9.23;;;;;;;21.60;74.31;95162.84;4926376;29;20069;-85
2022/06/06 05:08:28;;;;;;;22.33;7.30;;;;;;;21.14;72.91;95078.69;4905431;29;20095;-86
2022/06/06 05:11:09;;;;;;;14.75;7.95;;;;;;;21.27;74.60;95109.13;4925692;29;20090;-86
2022/06/06 05:13:59;;;;;;;25.15;9.55;;;;;;;21.46;75.30;95181.31;4906761;29;20048;-86
2022/06/06 05:17:03;;;;;;;27.00;10.73;;;;;;;21.41;75.42;95185.06;4920500;29;20078;-85
2022/06/06 05:20:03;;;;;;;19.52;9.43;;;;;;;20.37;75.73;95094.09;4918891;29;20036;-86
2022/06/06 05:22:55;;;;;;;15.65;8.65;;;;;;;21.08;75.41;95187.91;4942938;29;20058;-86
2022/06/06 05:25:54;;;;;;;24.73;10.50;;;;;;;20.51;76.24;95064.13;4946203;29;20054;-86
2022/06/06 05:28:19;;;;;;;35.03;10.23;;;;;;;21.20;74.90;95189.84;4947065;29;20043;-86
2022/06/06 05:31:17;;;;;;;15.43;9.07;;;;;;;21.20;76.01;95210.63;4936798;29;20043;-86
2022/06/06 05:33:55;;;;;;;24.73;9.93;;;;;;;19.83;76.17;94976.97;4902033;29;20486;-85
2022/06/06 05:36:39;;;;;;;20.80;10.38;;;;;;;20.97;76.11;95186.03;4929331;29;20171;-85
2022/06/06 05:39:13;;;;;;;15.40;8.90;;;;;;;21.23;75.48;95182.97;4932504;29;20049;-86
2022/06/06 05:41:49;;;;;;;18.33;9.10;;;;;;;21.45;75.90;95190.53;4932344;29;20063;-85
2022/06/06 05:44:33;;;;;;;18.67;8.60;;;;;;;21.61;76.78;95199.50;4911874;29;20048;-86
2022/06/06 05:47:30;;;;;;;20.52;9.90;;;;;;;21.88;74.99;95193.31;4927675;29;20043;-84
2022/06/06 05:50:16;;;;;;;18.20;9.05;;;;;;;21.97;73.47;95193.19;4915138;29;20573;-84
2022/06/06 05:53:12;;;;;;;24.90;10.40;;;;;;;21.85;73.30;95142.72;4909675;29;20130;-83
2022/06/06 05:55:54;;;;;;;22.48;8.88;;;;;;;21.62;72.85;95084.25;4930775;29;20039;-83
2022/06/06 05:58:44;;;;;;;23.83;9.50;;;;;;;22.48;73.53;95187.94;4907770;29;20691;-84
2022/06/06 06:01:18;;;;;;;28.95;10.57;;;;;;;22.46;72.62;95190.22;4906423;29;21371;-84
2022/06/06 06:04:18;;;;;;;24.15;9.95;;;;;;;22.62;72.71;95197.19;4908871;29;20040;-83
2022/06/06 06:06:49;;;;;;;27.25;10.70;;;;;;;22.63;71.56;95195.28;4901406;29;20100;-84
2022/06/06 06:09:33;;;;;;;;;;;;;;;22.71;73.34;95192.41;4909927;29;20044;-82
2022/06/06 06:12:21;;;;;;;30.17;10.85;;;;;;;22.95;72.12;95196.84;4910463;29;19990;-84
2022/06/06 06:14:53;;;;;;;29.05;12.10;;;;;;;23.03;72.64;95195.88;4905980;29;20129;-83
2022/06/06 06:17:39;;;;;;;39.30;11.98;;;;;;;22.58;72.26;95095.53;4911915;29;20067;-83
2022/06/06 06:20:10;;;;;;;24.50;9.93;;;;;;;22.61;71.05;95098.31;4893053;29;20133;-83
2022/06/06 06:22:58;;;;;;;20.15;10.15;;;;;;;21.24;70.64;94879.78;4907383;29;20118;-84
2022/06/06 06:25:28;;;;;;;19.70;10.55;;;;;;;22.69;71.41;95100.03;4906839;29;20040;-83
2022/06/06 06:27:58;;;;;;;24.65;10.68;;;;;;;23.21;71.02;95193.56;4886531;29;20539;-83
2022/06/06 06:30:28;;;;;;;20.60;10.80;;;;;;;22.89;69.95;95151.47;4906767;29;20053;-83
2022/06/06 06:33:02;;;;;;;27.58;11.68;;;;;;;23.22;70.31;95186.22;4908734;29;20503;-83
2022/06/06 06:35:42;;;;;;;26.65;12.13;;;;;;;22.33;68.06;95052.50;4889873;29;20036;-82
2022/06/06 06:38:44;;;;;;;29.23;11.32;;;;;;;23.35;68.78;95180.34;4911194;29;20032;-82
2022/06/06 06:41:12;;;;;;;37.70;11.88;;;;;;;23.50;69.34;95183.38;4906407;29;20036;-82
2022/06/06 06:43:57;;;;;;;28.13;11.45;;;;;;;23.58;70.34;95175.03;4892090;29;20515;-83
2022/06/06 06:46:32;;;;;;;25.10;11.10;;;;;;;23.06;67.92;95116.72;4890862;29;20028;-83
2022/06/06 06:49:22;;;;;;;29.48;11.93;;;;;;;22.97;68.20;95097.19;4894925;29;20101;-83
2022/06/06 06:52:00;;;;;;;35.72;12.38;;;;;;;23.53;67.97;95159.09;4910610;29;20123;-82
2022/06/06 06:54:37;;;;;;;31.65;13.23;;;;;;;22.81;69.10;95036.22;4909141;29;20066;-83
2022/06/06 06:57:26;;;;;;;41.08;12.55;;;;;;;23.45;68.85;95122.16;4907594;29;20042;-82
2022/06/06 07:00:00;;;;;;;32.22;11.45;;;;;;;23.35;65.87;95133.53;4914808;29;20391;-83
2022/06/06 07:09:12;;;;;;;28.33;11.93;;;;;;;23.25;68.30;95129.50;4937032;29;20042;-83
2022/06/06 07:11:47;;;;;;;34.60;13.55;;;;;;;22.94;68.66;95138.50;4914629;29;20040;-82
2022/06/06 07:14:38;;;;;;;28.85;13.50;;;;;;;23.08;68.55;95136.09;4915544;29;20039;-83
2022/06/06 07:17:05;;;;;;;31.55;15.45;;;;;;;22.98;68.84;95103.41;4891869;29;20502;-83
2022/06/06 07:19:58;;;;;;;32.85;15.80;;;;;;;23.27;69.34;95131.81;4913613;29;20118;-82
2022/06/06 07:22:28;;;;;;;28.20;15.20;;;;;;;23.16;69.60;95079.44;4909546;29;20738;-82
2022/06/06 07:24:58;;;;;;;42.38;15.55;;;;;;;23.28;69.25;95090.88;4920231;29;20091;-82
2022/06/06 07:27:24;;;;;;;29.90;13.93;;;;;;;22.60;67.69;95015.66;4906901;29;20146;-83
2022/06/06 07:29:49;;;;;;;30.45;13.93;;;;;;;22.32;70.00;94986.09;4909909;29;20109;-82
2022/06/06 07:32:15;;;;;;;34.72;15.32;;;;;;;23.38;69.51;95122.03;4909661;29;20796;-83
2022/06/06 07:35:11;;;;;;;39.78;15.00;;;;;;;23.19;69.42;95124.72;4918860;29;20039;-83
2022/06/06 07:38:16;;;;;;;30.05;13.45;;;;;;;23.16;68.73;95130.84;4928434;29;20728;-82
2022/06/06 07:41:08;;;;;;;41.53;15.23;;;;;;;22.90;68.91;95071.94;4901586;29;20146;-83
2022/06/06 07:44:02;;;;;;;28.48;13.93;;;;;;;23.24;68.15;95122.50;4913407;29;20051;-82
2022/06/06 07:46:43;;;;;;;27.73;13.15;;;;;;;23.39;67.33;95121.66;4915200;29;20098;-82
2022/06/06 07:49:23;;;;;;;38.40;13.60;;;;;;;23.27;67.86;95092.03;4924246;29;20049;-82
2022/06/06 07:52:02;;;;;;;24.67;11.93;;;;;;;23.40;66.86;95095.41;4930941;28;20044;-82
2022/06/06 07:54:46;;;;;;;24.00;10.25;;;;;;;22.69;65.05;95013.53;4927528;29;20298;-82
2022/06/06 07:57:39;;;;;;;33.42;9.55;;;;;;;23.63;64.53;95130.66;4931568;29;20519;-83
2022/06/06 08:00:04;;;;;;;23.77;8.50;;;;;;;23.84;63.79;95131.84;4922138;29;20152;-82
2022/06/06 08:03:02;;;;;;;19.25;7.80;;;;;;;23.92;62.82;95132.78;4925324;29;20054;-82
2022/06/06 08:05:49;;;;;;;25.88;8.13;;;;;;;23.93;62.94;95138.97;4920189;29;20045;-82
2022/06/06 08:08:37;;;;;;;26.10;7.45;;;;;;;24.02;62.13;95137.59;4928045;29;20039;-82
2022/06/06 08:11:13;;;;;;;20.40;6.70;;;;;;;24.01;60.76;95149.59;4921222;29;20150;-82
2022/06/06 08:14:23;;;;;;;22.25;6.30;;;;;;;24.16;57.91;95150.63;4921345;28;20521;-81
2022/06/06 08:17:05;;;;;;;19.52;5.57;;;;;;;23.59;58.67;95070.25;4902993;29;20047;-83
2022/06/06 08:19:36;;;;;;;25.40;6.35;;;;;;;24.11;59.15;95146.25;4930591;29;20129;-82
2022/06/06 08:22:02;;;;;;;20.88;5.25;;;;;;;24.06;57.61;95149.28;4919924;29;20036;-82
2022/06/06 08:24:33;;;;;;;28.02;5.90;;;;;;;24.00;57.60;95103.88;4929058;29;20046;-82
2022/06/06 08:27:00;;;;;;;24.60;6.50;;;;;;;24.10;58.97;95116.84;4919290;29;20101;-83
2022/06/06 08:29:28;;;;;;;28.10;6.15;;;;;;;24.03;57.32;95114.75;4929041;29;20499;-82
2022/06/06 08:31:54;;;;;;;23.20;7.03;;;;;;;24.13;56.65;95092.50;4932177;29;20050;-82
2022/06/06 08:34:20;;;;;;;18.67;5.82;;;;;;;24.16;55.28;95072.03;4932436;29;20031;-82
2022/06/06 08:37:07;;;;;;;22.98;5.60;;;;;;;25.09;55.46;95155.66;4929099;29;20632;-82
2022/06/06 08:40:20;;;;;;;25.08;6.15;;;;;;;25.44;56.35;95134.41;4934049;29;20167;-82
2022/06/06 08:42:52;;;;;;;16.77;5.90;;;;;;;25.67;54.47;95143.25;4882899;29;20048;-82
2022/06/06 08:45:41;;;;;;;26.90;7.15;;;;;;;25.52;54.16;95117.03;4908843;29;20107;-82
2022/06/06 08:48:23;;;;;;;22.25;5.93;;;;;;;25.54;53.69;95092.25;4923921;29;20519;-83
2022/06/06 08:50:58;;;;;;;17.30;5.28;;;;;;;25.73;54.27;95174.34;4930306;29;20087;-82
2022/06/06 08:53:57;;;;;;;13.70;5.20;;;;;;;25.68;55.80;95176.63;4907894;29;20062;-83
2022/06/06 08:56:41;;;;;;;17.60;4.30;;;;;;;25.50;51.70;95194.56;4930223;29;20110;-83
2022/06/06 08:59:15;;;;;;;19.08;4.63;;;;;;;25.46;49.39;95204.63;4929618;29;20607;-83
2022/06/06 09:01:53;;;;;;;20.05;4.28;;;;;;;25.04;49.94;95196.66;4910637;29;20114;-83
2022/06/06 09:04:46;;;;;;;15.20;3.90;;;;;;;24.64;53.00;95186.31;4925041;29;20031;-83
2022/06/06 09:07:34;;;;;;;13.90;4.07;;;;;;;24.50;55.61;95184.13;4909726;29;20111;-83
2022/06/06 09:10:38;;;;;;;20.33;4.53;;;;;;;24.09;57.59;95172.94;4926124;29;20035;-82
2022/06/06 09:13:04;;;;;;;23.73;6.20;;;;;;;23.71;62.23;95200.84;4927312;29;20282;-82
2022/06/06 09:16:14;;;;;;;36.80;8.82;;;;;;;23.39;64.16;95229.13;4931287;29;20069;-83
2022/06/06 09:18:57;;;;;;;17.02;5.40;;;;;;;22.55;66.80;95209.75;4905509;29;20048;-84
2022/06/06 09:21:41;;;;;;;26.27;6.20;;;;;;;22.49;68.61;95235.47;4912884;29;20557;-83
2022/06/06 09:24:28;;;;;;;20.52;4.97;;;;;;;21.74;69.43;95236.09;4925586;29;20035;-83
2022/06/06 09:26:56;;;;;;;9.25;4.25;;;;;;;21.60;71.47;95248.41;4933209;29;20031;-83
2022/06/06 09:29:50;;;;;;;11.80;4.88;;;;;;;21.06;72.82;95167.78;4942095;29;20058;-83
2022/06/06 09:32:49;;;;;;;12.23;5.00;;;;;;;21.23;75.62;95223.41;4918475;29;20036;-83
2022/06/06 09:36:04;;;;;;;8.20;4.47;;;;;;;21.15;75.39;95208.91;4921529;29;20035;-84
2022/06/06 09:38:29;;;;;;;13.68;5.28;;;;;;;21.33;77.52;95220.25;4913333;29;20047;-83
2022/06/06 09:41:16;;;;;;;12.93;5.95;;;;;;;21.62;78.76;95221.88;4923960;29;20031;-84
2022/06/06 09:44:03;;;;;;;9.45;5.43;;;;;;;21.71;75.09;95226.00;4935602;29;20030;-82
2022/06/06 09:46:59;;;;;;;11.55;5.53;;;;;;;21.47;73.76;95177.50;4915966;29;20042;-83
2022/06/06 09:49:33;;;;;;;12.05;5.82;;;;;;;21.95;75.17;95233.22;4943023;29;20443;-82
2022/06/06 09:52:08;;;;;;;15.35;6.47;;;;;;;22.23;74.82;95225.13;4912302;29;20145;-82
2022/06/06 10:00:53;;;;;;;14.32;5.18;;;;;;;23.89;73.05;95200.41;4942456;29;20158;-83
2022/06/06 10:03:47;;;;;;;13.95;5.15;;;;;;;23.81;73.22;95107.41;4928884;29;20039;-82
2022/06/06 10:06:37;;;;;;;11.68;4.90;;;;;;;24.81;68.90;95156.75;4938206;29;20121;-83
2022/06/06 10:09:23;;;;;;;9.80;4.78;;;;;;;25.16;67.60;95224.38;4938373;29;20198;-83
2022/06/06 10:12:07;;;;;;;11.27;4.47;;;;;;;25.59;66.94;95233.94;4935421;29;20497;-83
2022/06/06 10:14:42;;;;;;;7.82;4.72;;;;;;;25.23;65.94;95156.63;4943707;29;20094;-83
2022/06/06 10:17:34;;;;;;;11.32;4.82;;;;;;;25.62;64.01;95227.78;4914699;29;20566;-83
2022/06/06 10:20:09;;;;;;;11.77;4.25;;;;;;;24.83;63.57;95140.13;4921906;29;20618;-83
2022/06/06 10:23:19;;;;;;;11.25;4.82;;;;;;;24.92;66.13;95200.34;4920051;29;20031;-84
2022/06/06 10:25:57;;;;;;;31.25;7.75;;;;;;;24.97;65.65;95243.44;4923872;29;20032;-84
2022/06/06 10:28:25;;;;;;;18.42;5.85;;;;;;;24.45;66.16;95233.22;4932053;29;20032;-84
2022/06/06 10:30:57;;;;;;;23.20;6.07;;;;;;;23.51;68.46;95207.38;4915626;29;20111;-84
2022/06/06 10:33:53;;;;;;;17.65;6.03;;;;;;;23.55;69.04;95240.72;4926178;29;20035;-83
2022/06/06 10:36:27;;;;;;;19.15;7.35;;;;;;;23.17;70.51;95233.28;4911954;29;20043;-83
2022/06/06 10:39:16;;;;;;;20.73;6.28;;;;;;;23.03;71.69;95239.16;4917858;29;20046;-84
2022/06/06 10:41:50;;;;;;;15.18;6.10;;;;;;;22.86;72.35;95238.72;4908145;29;20789;-83
2022/06/06 10:44:48;;;;;;;14.18;5.78;;;;;;;21.95;72.83;95166.53;4927587;29;20082;-83
2022/06/06 10:47:46;;;;;;;15.07;6.38;;;;;;;22.00;73.76;95219.50;4935229;29;20589;-83
2022/06/06 10:51:36;;;;;;;11.55;6.93;;;;;;;21.86;75.06;95202.88;4895319;29;20067;-83
2022/06/06 10:53:57;;;;;;;14.18;6.53;;;;;;;21.98;75.36;95197.47;4931269;29;20059;-82
2022/06/06 10:57:12;;;;;;;14.45;6.68;;;;;;;21.82;77.56;95193.91;4917883;29;20107;-83
2022/06/06 11:00:19;;;;;;;14.18;6.97;;;;;;;21.92;76.25;95232.00;4894023;29;20676;-83
2022/06/06 11:02:53;;;;;;;20.27;7.20;;;;;;;21.91;75.40;95237.72;4854508;29;20041;-83
2022/06/06 11:05:45;;;;;;;19.48;7.00;;;;;;;21.55;73.75;95184.69;4909797;29;20047;-83
2022/06/06 11:08:30;;;;;;;16.15;5.95;;;;;;;21.93;74.64;95222.78;4901282;29;20051;-83
2022/06/06 11:11:24;;;;;;;17.55;7.28;;;;;;;22.15;75.43;95209.88;4921132;29;20052;-83
2022/06/06 11:14:18;;;;;;;20.02;8.77;;;;;;;22.26;76.82;95210.94;4913312;29;20040;-83
2022/06/06 11:16:52;;;;;;;15.40;9.50;;;;;;;22.43;78.66;95221.41;4931554;29;20035;-83
2022/06/06 11:19:36;;;;;;;19.25;9.30;;;;;;;22.56;77.66;95230.22;4918320;29;20043;-83
2022/06/06 11:22:25;;;;;;;17.13;7.82;;;;;;;22.48;76.36;95221.16;4935207;29;20526;-83
2022/06/06 11:25:01;;;;;;;16.05;7.28;;;;;;;22.62;75.25;95216.13;4915140;29;20054;-83
2022/06/06 11:27:39;;;;;;;12.75;6.20;;;;;;;22.21;76.12;95151.75;4923172;29;20039;-83
2022/06/06 11:30:32;;;;;;;10.80;7.10;;;;;;;22.92;77.94;95226.50;4931196;29;20058;-83
2022/06/06 11:33:23;;;;;;;15.02;6.35;;;;;;;22.82;75.68;95191.88;4933366;29;20060;-83
2022/06/06 11:36:32;;;;;;;10.95;5.72;;;;;;;22.92;74.56;95180.53;4929874;29;20031;-83
2022/06/06 11:39:15;;;;;;;11.27;5.40;;;;;;;23.09;74.39;95207.22;4930921;29;20039;-83
2022/06/06 11:41:50;;;;;;;16.17;6.18;;;;;;;23.09;73.61;95215.31;4918107;29;20043;-83
2022/06/06 11:44:52;;;;;;;18.63;5.38;;;;;;;22.81;73.07;95169.47;4915634;29;20553;-83
2022/06/06 11:47:24;;;;;;;6.63;4.45;;;;;;;22.98;71.36;95211.56;4914705;29;20042;-83
2022/06/06 11:50:21;;;;;;;8.40;4.55;;;;;;;22.70;71.24;95196.22;4932543;29;20059;-83
2022/06/06 11:53:08;;;;;;;9.80;5.72;;;;;;;22.98;74.42;95200.75;4903893;29;20534;-84
2022/06/06 11:55:46;;;;;;;6.32;4.95;;;;;;;22.80;72.53;95121.97;4933473;29;20099;-83
2022/06/06 11:58:50;;;;;;;10.30;5.05;;;;;;;23.44;72.47;95213.38;4914282;29;20107;-83
2022/06/06 12:01:24;;;;;;;12.63;5.28;;;;;;;23.54;70.67;95216.72;4933063;28;20050;-83
2022/06/06 12:04:23;;;;;;;12.18;5.35;;;;;;;23.59;71.06;95205.59;4934251;29;20043;-83
2022/06/06 12:07:23;;;;;;;10.35;4.95;;;;;;;23.70;70.00;95206.63;4935125;29;20058;-84
2022/06/06 12:10:12;;;;;;;8.30;5.47;;;;;;;23.79;70.29;95212.59;4932718;29;20035;-83
2022/06/06 12:12:59;;;;;;;9.30;5.03;;;;;;;23.82;70.60;95209.97;4915035;29;20078;-83
2022/06/06 12:15:56;;;;;;;10.60;5.20;;;;;;;23.61;68.80;95201.41;4931789;29;20118;-84
2022/06/06 12:18:49;;;;;;;12.55;5.63;;;;;;;23.63;70.10;95192.94;4917486;29;20031;-83
2022/06/06 12:21:33;;;;;;;7.55;6.05;;;;;;;23.70;71.22;95180.31;4913355;29;20519;-83
2022/06/06 12:24:27;;;;;;;9.90;5.82;;;;;;;23.33;69.65;95142.03;4933782;29;20554;-83
2022/06/06 12:26:58;;;;;;;12.07;6.15;;;;;;;23.68;70.06;95171.78;4932384;28;20046;-83
2022/06/06 12:29:29;;;;;;;10.38;6.10;;;;;;;23.68;70.14;95174.47;4935570;28;20558;-83
2022/06/06 12:32:16;;;;;;;8.50;6.40;;;;;;;23.63;71.71;95174.78;4932240;29;20078;-82
2022/06/06 12:34:54;;;;;;;16.45;7.05;;;;;;;23.71;69.67;95190.03;4933595;29;20086;-83
2022/06/06 12:37:30;;;;;;;9.30;5.93;;;;;;;23.03;68.80;95084.22;4910407;29;20050;-83
2022/06/06 12:39:58;;;;;;;14.35;5.53;;;;;;;23.56;67.93;95193.56;4932619;29;20065;-83
2022/06/06 12:42:47;;;;;;;7.97;5.35;;;;;;;23.30;69.10;95158.19;4932656;29;20035;-82